Kaneohe Bay, Hawaii
Current Conditions -  °F | °C
As of 4:57 PM on Saturday 22 Nov 2014 (Local Time) from PHNG Reporting Station
Clear Clear  
Wind Chill: 79°   Ceiling: Unl
Heat Index: 81°   Visibility: 10mi
Dew Point: 68°   Wind: 9mph
Humidity: 69%   Direction: 70°ENE
Pressure: 30"   Gusts: NA
Location:  21.42°N, 157.8°W
Report Text: PHNG 230257Z 07008KT 10SM CLR 26/20 A3000 RMK AO2 SLP154 T02610200 55003 $
Loading
Personal Weather Stations






























Interactive Weather Map New forecast layout! Learn more

10-Day Weather Forecast

Advertisements
Track Severe Weather on mobile